sensor_id;sensor_type;location;lat;lon;timestamp;P1;durP1;ratioP1;P2;durP2;ratioP2
56517;SDS011;42419;48.760;2.322;2022-12-29T00:01:17;1.63;;;1.40;;
56517;SDS011;42419;48.760;2.322;2022-12-29T00:03:45;1.57;;;1.47;;
56517;SDS011;42419;48.760;2.322;2022-12-29T00:06:11;1.40;;;1.20;;
56517;SDS011;42419;48.760;2.322;2022-12-29T00:08:36;1.60;;;1.40;;
56517;SDS011;42419;48.760;2.322;2022-12-29T00:11:12;1.50;;;1.23;;
56517;SDS011;42419;48.760;2.322;2022-12-29T00:13:39;1.63;;;1.30;;
56517;SDS011;42419;48.760;2.322;2022-12-29T00:16:23;1.50;;;1.33;;
56517;SDS011;42419;48.760;2.322;2022-12-29T00:18:48;2.83;;;1.33;;
56517;SDS011;42419;48.760;2.322;2022-12-29T00:21:14;1.63;;;1.30;;
56517;SDS011;42419;48.760;2.322;2022-12-29T00:23:59;1.20;;;1.10;;
56517;SDS011;42419;48.760;2.322;2022-12-29T00:26:44;2.17;;;1.30;;
56517;SDS011;42419;48.760;2.322;2022-12-29T00:29:29;1.23;;;1.13;;
56517;SDS011;42419;48.760;2.322;2022-12-29T00:32:13;1.93;;;1.50;;
56517;SDS011;42419;48.760;2.322;2022-12-29T00:35:11;1.30;;;1.20;;
56517;SDS011;42419;48.760;2.322;2022-12-29T00:37:43;1.30;;;1.20;;
56517;SDS011;42419;48.760;2.322;2022-12-29T00:40:29;4.27;;;1.60;;
56517;SDS011;42419;48.760;2.322;2022-12-29T00:43:13;1.63;;;1.30;;
56517;SDS011;42419;48.760;2.322;2022-12-29T00:45:57;1.67;;;1.40;;
56517;SDS011;42419;48.760;2.322;2022-12-29T00:48:22;1.50;;;1.30;;
56517;SDS011;42419;48.760;2.322;2022-12-29T00:51:07;1.93;;;1.30;;
56517;SDS011;42419;48.760;2.322;2022-12-29T00:53:33;1.60;;;1.30;;
56517;SDS011;42419;48.760;2.322;2022-12-29T00:55:58;1.63;;;1.30;;
56517;SDS011;42419;48.760;2.322;2022-12-29T00:58:26;1.70;;;1.50;;
56517;SDS011;42419;48.760;2.322;2022-12-29T01:01:00;3.03;;;1.70;;
56517;SDS011;42419;48.760;2.322;2022-12-29T01:03:26;2.83;;;1.47;;
56517;SDS011;42419;48.760;2.322;2022-12-29T01:05:52;1.70;;;1.57;;
56517;SDS011;42419;48.760;2.322;2022-12-29T01:08:17;1.60;;;1.40;;
56517;SDS011;42419;48.760;2.322;2022-12-29T01:10:42;1.70;;;1.30;;
56517;SDS011;42419;48.760;2.322;2022-12-29T01:13:07;1.50;;;1.40;;
56517;SDS011;42419;48.760;2.322;2022-12-29T01:15:33;1.80;;;1.37;;
56517;SDS011;42419;48.760;2.322;2022-12-29T01:17:58;1.77;;;1.60;;
56517;SDS011;42419;48.760;2.322;2022-12-29T01:20:23;1.47;;;1.20;;
56517;SDS011;42419;48.760;2.322;2022-12-29T01:22:49;2.33;;;1.43;;
56517;SDS011;42419;48.760;2.322;2022-12-29T01:25:14;1.47;;;1.37;;
56517;SDS011;42419;48.760;2.322;2022-12-29T01:27:39;1.60;;;1.50;;
56517;SDS011;42419;48.760;2.322;2022-12-29T01:30:05;1.90;;;1.37;;
56517;SDS011;42419;48.760;2.322;2022-12-29T01:32:30;1.70;;;1.30;;
56517;SDS011;42419;48.760;2.322;2022-12-29T01:34:56;1.90;;;1.40;;
56517;SDS011;42419;48.760;2.322;2022-12-29T01:37:21;2.00;;;1.40;;
56517;SDS011;42419;48.760;2.322;2022-12-29T01:39:46;1.83;;;1.30;;
56517;SDS011;42419;48.760;2.322;2022-12-29T01:42:16;1.93;;;1.27;;
56517;SDS011;42419;48.760;2.322;2022-12-29T01:44:53;2.50;;;1.30;;
56517;SDS011;42419;48.760;2.322;2022-12-29T01:47:22;1.73;;;1.47;;
56517;SDS011;42419;48.760;2.322;2022-12-29T01:50:08;1.67;;;1.20;;
56517;SDS011;42419;48.760;2.322;2022-12-29T01:52:40;1.67;;;1.40;;
56517;SDS011;42419;48.760;2.322;2022-12-29T01:55:09;1.63;;;1.47;;
56517;SDS011;42419;48.760;2.322;2022-12-29T01:57:37;2.43;;;1.40;;
56517;SDS011;42419;48.760;2.322;2022-12-29T02:00:09;1.50;;;1.23;;
56517;SDS011;42419;48.760;2.322;2022-12-29T02:02:37;1.50;;;1.30;;
56517;SDS011;42419;48.760;2.322;2022-12-29T02:05:05;1.73;;;1.40;;
56517;SDS011;42419;48.760;2.322;2022-12-29T02:07:36;1.47;;;1.30;;
56517;SDS011;42419;48.760;2.322;2022-12-29T02:10:03;1.50;;;1.20;;
56517;SDS011;42419;48.760;2.322;2022-12-29T02:12:28;1.87;;;1.50;;
56517;SDS011;42419;48.760;2.322;2022-12-29T02:14:55;2.33;;;1.40;;
56517;SDS011;42419;48.760;2.322;2022-12-29T02:22:44;1.37;;;1.13;;
56517;SDS011;42419;48.760;2.322;2022-12-29T02:31:31;2.20;;;1.30;;
56517;SDS011;42419;48.760;2.322;2022-12-29T02:34:32;1.57;;;1.20;;
56517;SDS011;42419;48.760;2.322;2022-12-29T02:42:51;2.27;;;1.13;;
56517;SDS011;42419;48.760;2.322;2022-12-29T02:45:27;1.40;;;1.30;;
56517;SDS011;42419;48.760;2.322;2022-12-29T02:48:04;2.43;;;1.33;;
56517;SDS011;42419;48.760;2.322;2022-12-29T02:53:28;1.30;;;1.20;;
56517;SDS011;42419;48.760;2.322;2022-12-29T02:56:15;1.50;;;1.20;;
56517;SDS011;42419;48.760;2.322;2022-12-29T02:58:40;2.07;;;1.50;;
56517;SDS011;42419;48.760;2.322;2022-12-29T03:01:16;1.47;;;1.10;;
56517;SDS011;42419;48.760;2.322;2022-12-29T03:03:51;1.70;;;1.20;;
56517;SDS011;42419;48.760;2.322;2022-12-29T03:09:11;1.60;;;1.20;;
56517;SDS011;42419;48.760;2.322;2022-12-29T03:15:10;1.30;;;1.20;;
56517;SDS011;42419;48.760;2.322;2022-12-29T03:18:06;1.80;;;1.40;;
56517;SDS011;42419;48.760;2.322;2022-12-29T03:20:43;1.30;;;1.20;;
56517;SDS011;42419;48.760;2.322;2022-12-29T03:23:27;2.23;;;1.40;;
56517;SDS011;42419;48.760;2.322;2022-12-29T03:25:55;1.90;;;1.60;;
56517;SDS011;42419;48.760;2.322;2022-12-29T03:28:26;1.77;;;1.00;;
56517;SDS011;42419;48.760;2.322;2022-12-29T03:30:57;1.47;;;1.23;;
56517;SDS011;42419;48.760;2.322;2022-12-29T03:33:24;1.30;;;1.10;;
56517;SDS011;42419;48.760;2.322;2022-12-29T03:35:54;1.30;;;0.97;;
56517;SDS011;42419;48.760;2.322;2022-12-29T03:41:10;1.50;;;1.30;;
56517;SDS011;42419;48.760;2.322;2022-12-29T03:43:39;1.50;;;1.10;;
56517;SDS011;42419;48.760;2.322;2022-12-29T03:46:05;1.53;;;1.10;;
56517;SDS011;42419;48.760;2.322;2022-12-29T03:48:30;1.37;;;0.90;;
56517;SDS011;42419;48.760;2.322;2022-12-29T03:50:57;1.60;;;1.20;;
56517;SDS011;42419;48.760;2.322;2022-12-29T03:53:23;2.53;;;1.20;;
56517;SDS011;42419;48.760;2.322;2022-12-29T03:55:48;1.80;;;1.40;;
56517;SDS011;42419;48.760;2.322;2022-12-29T03:58:14;1.13;;;1.00;;
56517;SDS011;42419;48.760;2.322;2022-12-29T04:00:39;2.37;;;1.50;;
56517;SDS011;42419;48.760;2.322;2022-12-29T04:03:04;1.33;;;1.13;;
56517;SDS011;42419;48.760;2.322;2022-12-29T04:05:30;1.70;;;1.30;;
56517;SDS011;42419;48.760;2.322;2022-12-29T04:07:56;2.13;;;1.40;;
56517;SDS011;42419;48.760;2.322;2022-12-29T04:10:21;1.80;;;1.50;;
56517;SDS011;42419;48.760;2.322;2022-12-29T04:12:46;1.57;;;1.20;;
56517;SDS011;42419;48.760;2.322;2022-12-29T04:15:12;1.73;;;1.20;;
56517;SDS011;42419;48.760;2.322;2022-12-29T04:17:37;1.73;;;1.20;;
56517;SDS011;42419;48.760;2.322;2022-12-29T04:20:03;2.27;;;1.10;;
56517;SDS011;42419;48.760;2.322;2022-12-29T04:22:48;1.97;;;1.43;;
56517;SDS011;42419;48.760;2.322;2022-12-29T04:25:13;1.60;;;1.10;;
56517;SDS011;42419;48.760;2.322;2022-12-29T04:27:38;2.13;;;1.10;;
56517;SDS011;42419;48.760;2.322;2022-12-29T04:30:04;1.17;;;1.00;;
56517;SDS011;42419;48.760;2.322;2022-12-29T04:32:29;1.80;;;1.23;;
56517;SDS011;42419;48.760;2.322;2022-12-29T04:34:55;1.53;;;1.17;;
56517;SDS011;42419;48.760;2.322;2022-12-29T04:37:20;1.40;;;0.90;;
56517;SDS011;42419;48.760;2.322;2022-12-29T04:39:45;1.87;;;1.20;;
56517;SDS011;42419;48.760;2.322;2022-12-29T04:42:11;1.57;;;1.30;;
56517;SDS011;42419;48.760;2.322;2022-12-29T04:44:36;2.00;;;1.30;;
56517;SDS011;42419;48.760;2.322;2022-12-29T04:47:01;1.80;;;1.30;;
56517;SDS011;42419;48.760;2.322;2022-12-29T04:49:26;1.73;;;1.13;;
56517;SDS011;42419;48.760;2.322;2022-12-29T04:51:52;2.10;;;1.30;;
56517;SDS011;42419;48.760;2.322;2022-12-29T04:54:17;1.57;;;1.30;;
56517;SDS011;42419;48.760;2.322;2022-12-29T04:56:42;1.33;;;1.13;;
56517;SDS011;42419;48.760;2.322;2022-12-29T04:59:08;4.00;;;1.40;;
56517;SDS011;42419;48.760;2.322;2022-12-29T05:01:33;1.70;;;0.97;;
56517;SDS011;42419;48.760;2.322;2022-12-29T05:03:58;1.40;;;1.07;;
56517;SDS011;42419;48.760;2.322;2022-12-29T05:06:24;1.83;;;1.10;;
56517;SDS011;42419;48.760;2.322;2022-12-29T05:08:49;1.40;;;1.07;;
56517;SDS011;42419;48.760;2.322;2022-12-29T05:11:14;2.00;;;1.10;;
56517;SDS011;42419;48.760;2.322;2022-12-29T05:13:39;1.40;;;1.10;;
56517;SDS011;42419;48.760;2.322;2022-12-29T05:16:05;2.33;;;1.30;;
56517;SDS011;42419;48.760;2.322;2022-12-29T05:18:30;1.60;;;1.33;;
56517;SDS011;42419;48.760;2.322;2022-12-29T05:20:56;1.20;;;1.07;;
56517;SDS011;42419;48.760;2.322;2022-12-29T05:23:21;1.50;;;1.40;;
56517;SDS011;42419;48.760;2.322;2022-12-29T05:25:46;2.07;;;1.30;;
56517;SDS011;42419;48.760;2.322;2022-12-29T05:28:12;1.60;;;1.20;;
56517;SDS011;42419;48.760;2.322;2022-12-29T05:30:38;1.80;;;1.50;;
56517;SDS011;42419;48.760;2.322;2022-12-29T05:33:03;1.80;;;1.27;;
56517;SDS011;42419;48.760;2.322;2022-12-29T05:35:31;1.90;;;1.37;;
56517;SDS011;42419;48.760;2.322;2022-12-29T05:37:57;2.07;;;1.57;;
56517;SDS011;42419;48.760;2.322;2022-12-29T05:40:22;2.07;;;1.20;;
56517;SDS011;42419;48.760;2.322;2022-12-29T05:42:48;2.30;;;1.43;;
56517;SDS011;42419;48.760;2.322;2022-12-29T05:45:13;1.40;;;1.27;;
56517;SDS011;42419;48.760;2.322;2022-12-29T05:47:38;2.33;;;1.40;;
56517;SDS011;42419;48.760;2.322;2022-12-29T05:50:04;1.60;;;1.40;;
56517;SDS011;42419;48.760;2.322;2022-12-29T05:52:29;1.40;;;1.17;;
56517;SDS011;42419;48.760;2.322;2022-12-29T05:54:54;2.40;;;1.47;;
56517;SDS011;42419;48.760;2.322;2022-12-29T05:57:20;2.03;;;1.30;;
56517;SDS011;42419;48.760;2.322;2022-12-29T05:59:45;1.63;;;1.20;;
56517;SDS011;42419;48.760;2.322;2022-12-29T06:02:10;2.17;;;1.40;;
56517;SDS011;42419;48.760;2.322;2022-12-29T06:04:35;3.20;;;1.63;;
56517;SDS011;42419;48.760;2.322;2022-12-29T06:07:01;1.83;;;1.33;;
56517;SDS011;42419;48.760;2.322;2022-12-29T06:09:26;1.73;;;1.30;;
56517;SDS011;42419;48.760;2.322;2022-12-29T06:11:51;3.07;;;1.60;;
56517;SDS011;42419;48.760;2.322;2022-12-29T06:14:17;1.50;;;1.10;;
56517;SDS011;42419;48.760;2.322;2022-12-29T06:16:42;2.07;;;1.50;;
56517;SDS011;42419;48.760;2.322;2022-12-29T06:19:07;2.00;;;1.50;;
56517;SDS011;42419;48.760;2.322;2022-12-29T06:21:33;2.80;;;1.60;;
56517;SDS011;42419;48.760;2.322;2022-12-29T06:23:58;3.00;;;1.40;;
56517;SDS011;42419;48.760;2.322;2022-12-29T06:26:23;2.80;;;1.83;;
56517;SDS011;42419;48.760;2.322;2022-12-29T06:28:49;1.70;;;1.30;;
56517;SDS011;42419;48.760;2.322;2022-12-29T06:31:14;1.67;;;1.30;;
56517;SDS011;42419;48.760;2.322;2022-12-29T06:33:39;3.37;;;2.17;;
56517;SDS011;42419;48.760;2.322;2022-12-29T06:36:05;3.27;;;1.57;;
56517;SDS011;42419;48.760;2.322;2022-12-29T06:38:30;1.67;;;1.30;;
56517;SDS011;42419;48.760;2.322;2022-12-29T06:40:56;2.30;;;1.50;;
56517;SDS011;42419;48.760;2.322;2022-12-29T06:43:21;3.00;;;1.70;;
56517;SDS011;42419;48.760;2.322;2022-12-29T06:45:46;3.00;;;1.70;;
56517;SDS011;42419;48.760;2.322;2022-12-29T06:48:12;2.20;;;1.60;;
56517;SDS011;42419;48.760;2.322;2022-12-29T06:50:37;2.60;;;1.57;;
56517;SDS011;42419;48.760;2.322;2022-12-29T06:53:02;4.00;;;1.40;;
56517;SDS011;42419;48.760;2.322;2022-12-29T06:55:28;2.97;;;1.80;;
56517;SDS011;42419;48.760;2.322;2022-12-29T06:57:54;2.53;;;1.77;;
56517;SDS011;42419;48.760;2.322;2022-12-29T07:00:21;2.37;;;1.30;;
56517;SDS011;42419;48.760;2.322;2022-12-29T07:02:46;2.10;;;1.40;;
56517;SDS011;42419;48.760;2.322;2022-12-29T07:05:11;3.90;;;1.70;;
56517;SDS011;42419;48.760;2.322;2022-12-29T07:07:38;2.10;;;1.27;;
56517;SDS011;42419;48.760;2.322;2022-12-29T07:10:04;3.50;;;1.63;;
56517;SDS011;42419;48.760;2.322;2022-12-29T07:12:29;1.80;;;1.40;;
56517;SDS011;42419;48.760;2.322;2022-12-29T07:14:55;2.77;;;1.60;;
56517;SDS011;42419;48.760;2.322;2022-12-29T07:17:20;2.20;;;1.57;;
56517;SDS011;42419;48.760;2.322;2022-12-29T07:19:45;3.80;;;1.47;;
56517;SDS011;42419;48.760;2.322;2022-12-29T07:22:11;3.57;;;1.73;;
56517;SDS011;42419;48.760;2.322;2022-12-29T07:24:36;3.90;;;1.73;;
56517;SDS011;42419;48.760;2.322;2022-12-29T07:27:01;2.53;;;1.70;;
56517;SDS011;42419;48.760;2.322;2022-12-29T07:29:26;3.23;;;1.60;;
56517;SDS011;42419;48.760;2.322;2022-12-29T07:31:52;3.30;;;1.80;;
56517;SDS011;42419;48.760;2.322;2022-12-29T07:34:17;2.70;;;1.60;;
56517;SDS011;42419;48.760;2.322;2022-12-29T07:36:42;2.47;;;1.90;;
56517;SDS011;42419;48.760;2.322;2022-12-29T07:39:08;2.20;;;1.70;;
56517;SDS011;42419;48.760;2.322;2022-12-29T07:41:33;2.03;;;1.60;;
56517;SDS011;42419;48.760;2.322;2022-12-29T07:43:59;4.13;;;1.60;;
56517;SDS011;42419;48.760;2.322;2022-12-29T07:46:24;3.03;;;1.73;;
56517;SDS011;42419;48.760;2.322;2022-12-29T07:48:50;2.57;;;1.47;;
56517;SDS011;42419;48.760;2.322;2022-12-29T07:51:15;4.43;;;2.17;;
56517;SDS011;42419;48.760;2.322;2022-12-29T07:53:40;2.53;;;1.33;;
56517;SDS011;42419;48.760;2.322;2022-12-29T07:56:06;2.83;;;1.97;;
56517;SDS011;42419;48.760;2.322;2022-12-29T07:58:31;2.80;;;1.90;;
56517;SDS011;42419;48.760;2.322;2022-12-29T08:00:57;3.17;;;1.80;;
56517;SDS011;42419;48.760;2.322;2022-12-29T08:03:23;3.70;;;2.20;;
56517;SDS011;42419;48.760;2.322;2022-12-29T08:05:49;2.30;;;1.63;;
56517;SDS011;42419;48.760;2.322;2022-12-29T08:08:15;3.20;;;1.90;;
56517;SDS011;42419;48.760;2.322;2022-12-29T08:10:40;3.17;;;2.00;;
56517;SDS011;42419;48.760;2.322;2022-12-29T08:13:06;2.97;;;1.60;;
56517;SDS011;42419;48.760;2.322;2022-12-29T08:15:31;2.87;;;1.83;;
56517;SDS011;42419;48.760;2.322;2022-12-29T08:17:56;4.70;;;1.60;;
56517;SDS011;42419;48.760;2.322;2022-12-29T08:20:21;4.00;;;1.87;;
56517;SDS011;42419;48.760;2.322;2022-12-29T08:22:47;2.67;;;2.00;;
56517;SDS011;42419;48.760;2.322;2022-12-29T08:25:12;4.30;;;2.10;;
56517;SDS011;42419;48.760;2.322;2022-12-29T08:27:37;3.03;;;1.67;;
56517;SDS011;42419;48.760;2.322;2022-12-29T08:30:03;3.93;;;2.07;;
56517;SDS011;42419;48.760;2.322;2022-12-29T08:32:29;2.80;;;1.70;;
56517;SDS011;42419;48.760;2.322;2022-12-29T08:34:54;2.43;;;1.60;;
56517;SDS011;42419;48.760;2.322;2022-12-29T08:37:20;2.47;;;1.57;;
56517;SDS011;42419;48.760;2.322;2022-12-29T08:39:45;2.23;;;2.03;;
56517;SDS011;42419;48.760;2.322;2022-12-29T08:42:10;3.77;;;2.13;;
56517;SDS011;42419;48.760;2.322;2022-12-29T08:44:36;3.13;;;1.97;;
56517;SDS011;42419;48.760;2.322;2022-12-29T08:47:01;2.83;;;1.60;;
56517;SDS011;42419;48.760;2.322;2022-12-29T08:49:26;8.03;;;2.67;;
56517;SDS011;42419;48.760;2.322;2022-12-29T08:51:52;3.20;;;1.93;;
56517;SDS011;42419;48.760;2.322;2022-12-29T08:54:17;3.30;;;1.90;;
56517;SDS011;42419;48.760;2.322;2022-12-29T08:56:43;2.73;;;2.07;;
56517;SDS011;42419;48.760;2.322;2022-12-29T08:59:08;3.27;;;1.67;;
56517;SDS011;42419;48.760;2.322;2022-12-29T09:01:33;3.80;;;1.80;;
56517;SDS011;42419;48.760;2.322;2022-12-29T09:04:01;2.83;;;1.70;;
56517;SDS011;42419;48.760;2.322;2022-12-29T09:06:26;2.87;;;1.80;;
56517;SDS011;42419;48.760;2.322;2022-12-29T09:08:53;3.27;;;1.87;;
56517;SDS011;42419;48.760;2.322;2022-12-29T09:11:20;4.47;;;1.97;;
56517;SDS011;42419;48.760;2.322;2022-12-29T09:13:47;2.33;;;1.70;;
56517;SDS011;42419;48.760;2.322;2022-12-29T09:16:13;3.87;;;1.90;;
56517;SDS011;42419;48.760;2.322;2022-12-29T09:18:39;4.67;;;1.93;;
56517;SDS011;42419;48.760;2.322;2022-12-29T09:21:04;4.40;;;1.93;;
56517;SDS011;42419;48.760;2.322;2022-12-29T09:23:31;3.53;;;2.10;;
56517;SDS011;42419;48.760;2.322;2022-12-29T09:25:57;2.80;;;1.87;;
56517;SDS011;42419;48.760;2.322;2022-12-29T09:28:22;2.30;;;1.70;;
56517;SDS011;42419;48.760;2.322;2022-12-29T09:30:48;2.97;;;2.07;;
56517;SDS011;42419;48.760;2.322;2022-12-29T09:33:14;4.50;;;2.17;;
56517;SDS011;42419;48.760;2.322;2022-12-29T09:35:41;3.73;;;1.90;;
56517;SDS011;42419;48.760;2.322;2022-12-29T09:38:08;3.37;;;2.17;;
56517;SDS011;42419;48.760;2.322;2022-12-29T09:40:33;3.27;;;2.07;;
56517;SDS011;42419;48.760;2.322;2022-12-29T09:45:40;3.27;;;2.03;;
56517;SDS011;42419;48.760;2.322;2022-12-29T09:48:11;5.40;;;2.07;;
56517;SDS011;42419;48.760;2.322;2022-12-29T09:50:43;3.00;;;2.00;;
56517;SDS011;42419;48.760;2.322;2022-12-29T09:53:30;3.17;;;1.77;;
56517;SDS011;42419;48.760;2.322;2022-12-29T09:56:03;4.00;;;2.07;;
56517;SDS011;42419;48.760;2.322;2022-12-29T09:59:11;4.07;;;2.30;;
56517;SDS011;42419;48.760;2.322;2022-12-29T10:01:38;3.67;;;2.20;;
56517;SDS011;42419;48.760;2.322;2022-12-29T10:04:36;3.40;;;2.23;;
56517;SDS011;42419;48.760;2.322;2022-12-29T10:07:20;3.87;;;2.50;;
56517;SDS011;42419;48.760;2.322;2022-12-29T10:13:09;4.93;;;2.10;;
56517;SDS011;42419;48.760;2.322;2022-12-29T10:16:07;5.10;;;2.17;;
56517;SDS011;42419;48.760;2.322;2022-12-29T10:18:48;2.60;;;1.63;;
56517;SDS011;42419;48.760;2.322;2022-12-29T10:23:59;4.80;;;2.20;;
56517;SDS011;42419;48.760;2.322;2022-12-29T10:26:31;2.63;;;1.70;;
56517;SDS011;42419;48.760;2.322;2022-12-29T10:29:06;3.40;;;2.07;;
56517;SDS011;42419;48.760;2.322;2022-12-29T10:31:41;3.20;;;2.10;;
56517;SDS011;42419;48.760;2.322;2022-12-29T10:34:17;3.40;;;2.20;;
56517;SDS011;42419;48.760;2.322;2022-12-29T10:36:51;2.43;;;1.50;;
56517;SDS011;42419;48.760;2.322;2022-12-29T10:39:28;4.43;;;2.30;;
56517;SDS011;42419;48.760;2.322;2022-12-29T10:42:04;2.63;;;1.87;;
56517;SDS011;42419;48.760;2.322;2022-12-29T10:44:53;3.97;;;2.00;;
56517;SDS011;42419;48.760;2.322;2022-12-29T10:47:24;3.50;;;1.90;;
56517;SDS011;42419;48.760;2.322;2022-12-29T10:49:52;3.47;;;2.20;;
56517;SDS011;42419;48.760;2.322;2022-12-29T10:52:19;5.20;;;1.97;;
56517;SDS011;42419;48.760;2.322;2022-12-29T10:55:08;2.83;;;1.97;;
56517;SDS011;42419;48.760;2.322;2022-12-29T10:57:35;3.93;;;2.10;;
56517;SDS011;42419;48.760;2.322;2022-12-29T11:00:11;3.20;;;1.93;;
56517;SDS011;42419;48.760;2.322;2022-12-29T11:08:13;2.80;;;2.23;;
56517;SDS011;42419;48.760;2.322;2022-12-29T11:10:43;3.10;;;1.90;;
56517;SDS011;42419;48.760;2.322;2022-12-29T11:13:16;4.90;;;2.27;;
56517;SDS011;42419;48.760;2.322;2022-12-29T11:15:48;3.50;;;2.13;;
56517;SDS011;42419;48.760;2.322;2022-12-29T11:18:31;4.83;;;2.40;;
56517;SDS011;42419;48.760;2.322;2022-12-29T11:20:59;5.67;;;2.70;;
56517;SDS011;42419;48.760;2.322;2022-12-29T11:23:40;3.60;;;1.90;;
56517;SDS011;42419;48.760;2.322;2022-12-29T11:28:36;3.63;;;2.33;;
56517;SDS011;42419;48.760;2.322;2022-12-29T11:31:03;3.57;;;2.43;;
56517;SDS011;42419;48.760;2.322;2022-12-29T11:33:31;3.83;;;2.57;;
56517;SDS011;42419;48.760;2.322;2022-12-29T11:35:57;4.60;;;2.00;;
56517;SDS011;42419;48.760;2.322;2022-12-29T11:38:37;3.87;;;2.70;;
56517;SDS011;42419;48.760;2.322;2022-12-29T11:41:19;4.27;;;2.00;;
56517;SDS011;42419;48.760;2.322;2022-12-29T11:43:50;3.40;;;2.40;;
56517;SDS011;42419;48.760;2.322;2022-12-29T11:46:22;3.83;;;2.20;;
56517;SDS011;42419;48.760;2.322;2022-12-29T11:48:51;4.90;;;2.33;;
56517;SDS011;42419;48.760;2.322;2022-12-29T11:51:21;3.70;;;2.33;;
56517;SDS011;42419;48.760;2.322;2022-12-29T11:53:52;3.50;;;2.47;;
56517;SDS011;42419;48.760;2.322;2022-12-29T11:56:31;3.50;;;2.47;;
56517;SDS011;42419;48.760;2.322;2022-12-29T11:59:10;3.87;;;2.60;;
56517;SDS011;42419;48.760;2.322;2022-12-29T12:01:54;4.77;;;2.80;;
56517;SDS011;42419;48.760;2.322;2022-12-29T12:04:22;4.30;;;2.40;;
56517;SDS011;42419;48.760;2.322;2022-12-29T12:09:43;4.30;;;2.47;;
56517;SDS011;42419;48.760;2.322;2022-12-29T12:12:55;5.27;;;2.50;;
56517;SDS011;42419;48.760;2.322;2022-12-29T12:15:13;3.77;;;2.10;;
56517;SDS011;42419;48.760;2.322;2022-12-29T12:23:43;3.20;;;1.97;;
56517;SDS011;42419;48.760;2.322;2022-12-29T12:26:16;4.07;;;1.97;;
56517;SDS011;42419;48.760;2.322;2022-12-29T12:29:04;3.00;;;2.17;;
56517;SDS011;42419;48.760;2.322;2022-12-29T12:31:41;3.50;;;2.17;;
56517;SDS011;42419;48.760;2.322;2022-12-29T12:34:16;4.97;;;2.23;;
56517;SDS011;42419;48.760;2.322;2022-12-29T12:39:26;3.20;;;2.27;;
56517;SDS011;42419;48.760;2.322;2022-12-29T12:42:09;4.10;;;2.10;;
56517;SDS011;42419;48.760;2.322;2022-12-29T13:07:25;4.10;;;1.90;;
56517;SDS011;42419;48.760;2.322;2022-12-29T13:13:04;4.70;;;2.40;;
56517;SDS011;42419;48.760;2.322;2022-12-29T13:16:04;4.90;;;2.40;;
56517;SDS011;42419;48.760;2.322;2022-12-29T13:21:39;3.23;;;2.20;;
56517;SDS011;42419;48.760;2.322;2022-12-29T13:30:08;4.10;;;2.27;;
56517;SDS011;42419;48.760;2.322;2022-12-29T13:39:11;3.67;;;2.50;;
56517;SDS011;42419;48.760;2.322;2022-12-29T13:41:51;4.70;;;2.20;;
56517;SDS011;42419;48.760;2.322;2022-12-29T13:44:23;3.57;;;2.23;;
56517;SDS011;42419;48.760;2.322;2022-12-29T13:46:52;4.53;;;2.20;;
56517;SDS011;42419;48.760;2.322;2022-12-29T13:49:20;4.10;;;2.23;;
56517;SDS011;42419;48.760;2.322;2022-12-29T13:51:50;3.60;;;2.10;;
56517;SDS011;42419;48.760;2.322;2022-12-29T14:02:33;3.60;;;2.13;;
56517;SDS011;42419;48.760;2.322;2022-12-29T14:05:04;4.30;;;2.40;;
56517;SDS011;42419;48.760;2.322;2022-12-29T14:07:56;4.03;;;2.43;;
56517;SDS011;42419;48.760;2.322;2022-12-29T14:10:29;5.10;;;2.47;;
56517;SDS011;42419;48.760;2.322;2022-12-29T14:13:10;4.07;;;2.33;;
56517;SDS011;42419;48.760;2.322;2022-12-29T14:15:40;3.53;;;2.30;;
56517;SDS011;42419;48.760;2.322;2022-12-29T14:18:11;4.20;;;2.73;;
56517;SDS011;42419;48.760;2.322;2022-12-29T14:28:31;3.30;;;2.47;;
56517;SDS011;42419;48.760;2.322;2022-12-29T14:31:02;3.90;;;2.30;;
56517;SDS011;42419;48.760;2.322;2022-12-29T14:33:29;3.50;;;2.43;;
56517;SDS011;42419;48.760;2.322;2022-12-29T14:35:56;4.70;;;2.83;;
56517;SDS011;42419;48.760;2.322;2022-12-29T14:38:45;4.77;;;2.80;;
56517;SDS011;42419;48.760;2.322;2022-12-29T14:41:22;4.07;;;2.67;;
56517;SDS011;42419;48.760;2.322;2022-12-29T14:43:53;5.03;;;2.90;;
56517;SDS011;42419;48.760;2.322;2022-12-29T14:46:22;4.73;;;2.97;;
56517;SDS011;42419;48.760;2.322;2022-12-29T14:48:47;4.70;;;2.43;;
56517;SDS011;42419;48.760;2.322;2022-12-29T14:51:31;4.50;;;2.60;;
56517;SDS011;42419;48.760;2.322;2022-12-29T14:54:00;4.80;;;2.97;;
56517;SDS011;42419;48.760;2.322;2022-12-29T14:56:58;4.13;;;2.60;;
56517;SDS011;42419;48.760;2.322;2022-12-29T14:59:27;3.50;;;2.33;;
56517;SDS011;42419;48.760;2.322;2022-12-29T15:01:53;4.93;;;3.20;;
56517;SDS011;42419;48.760;2.322;2022-12-29T15:04:22;3.73;;;2.27;;
56517;SDS011;42419;48.760;2.322;2022-12-29T15:06:50;5.90;;;2.93;;
56517;SDS011;42419;48.760;2.322;2022-12-29T15:09:30;4.67;;;2.50;;
56517;SDS011;42419;48.760;2.322;2022-12-29T15:15:13;3.70;;;2.50;;
56517;SDS011;42419;48.760;2.322;2022-12-29T15:17:43;5.53;;;2.60;;
56517;SDS011;42419;48.760;2.322;2022-12-29T15:23:10;4.50;;;2.50;;
56517;SDS011;42419;48.760;2.322;2022-12-29T15:33:39;5.57;;;2.73;;
56517;SDS011;42419;48.760;2.322;2022-12-29T15:36:10;4.70;;;2.40;;
56517;SDS011;42419;48.760;2.322;2022-12-29T15:38:38;4.53;;;2.70;;
56517;SDS011;42419;48.760;2.322;2022-12-29T15:41:05;7.00;;;2.53;;
56517;SDS011;42419;48.760;2.322;2022-12-29T15:46:21;5.00;;;2.50;;
56517;SDS011;42419;48.760;2.322;2022-12-29T15:48:46;4.87;;;2.83;;
56517;SDS011;42419;48.760;2.322;2022-12-29T15:51:19;4.17;;;2.53;;
56517;SDS011;42419;48.760;2.322;2022-12-29T15:53:50;4.40;;;2.60;;
56517;SDS011;42419;48.760;2.322;2022-12-29T15:56:17;4.77;;;2.57;;
56517;SDS011;42419;48.760;2.322;2022-12-29T15:58:44;3.73;;;2.90;;
56517;SDS011;42419;48.760;2.322;2022-12-29T16:01:17;4.13;;;2.60;;
56517;SDS011;42419;48.760;2.322;2022-12-29T16:03:44;8.17;;;2.90;;
56517;SDS011;42419;48.760;2.322;2022-12-29T16:06:21;3.17;;;2.57;;
56517;SDS011;42419;48.760;2.322;2022-12-29T16:11:38;4.63;;;2.63;;
56517;SDS011;42419;48.760;2.322;2022-12-29T16:14:10;4.60;;;2.20;;
56517;SDS011;42419;48.760;2.322;2022-12-29T16:16:41;5.17;;;2.70;;
56517;SDS011;42419;48.760;2.322;2022-12-29T16:21:36;5.43;;;2.70;;
56517;SDS011;42419;48.760;2.322;2022-12-29T16:24:02;3.90;;;2.53;;
56517;SDS011;42419;48.760;2.322;2022-12-29T16:26:32;3.87;;;2.40;;
56517;SDS011;42419;48.760;2.322;2022-12-29T16:28:58;3.00;;;2.20;;
56517;SDS011;42419;48.760;2.322;2022-12-29T16:31:33;3.10;;;1.93;;
56517;SDS011;42419;48.760;2.322;2022-12-29T16:34:10;3.47;;;2.00;;
56517;SDS011;42419;48.760;2.322;2022-12-29T16:36:51;4.37;;;2.67;;
56517;SDS011;42419;48.760;2.322;2022-12-29T16:41:56;3.23;;;2.40;;
56517;SDS011;42419;48.760;2.322;2022-12-29T16:46:59;3.50;;;2.57;;
56517;SDS011;42419;48.760;2.322;2022-12-29T16:49:40;5.50;;;3.17;;
56517;SDS011;42419;48.760;2.322;2022-12-29T16:52:29;3.27;;;2.30;;
56517;SDS011;42419;48.760;2.322;2022-12-29T16:54:59;4.20;;;2.43;;
56517;SDS011;42419;48.760;2.322;2022-12-29T16:57:29;5.23;;;2.97;;
56517;SDS011;42419;48.760;2.322;2022-12-29T17:00:00;3.37;;;2.20;;
56517;SDS011;42419;48.760;2.322;2022-12-29T17:02:28;5.23;;;2.47;;
56517;SDS011;42419;48.760;2.322;2022-12-29T17:04:56;4.67;;;2.60;;
56517;SDS011;42419;48.760;2.322;2022-12-29T17:07:25;3.60;;;2.60;;
56517;SDS011;42419;48.760;2.322;2022-12-29T17:09:52;5.53;;;2.80;;
56517;SDS011;42419;48.760;2.322;2022-12-29T17:12:23;3.67;;;2.40;;
56517;SDS011;42419;48.760;2.322;2022-12-29T17:14:57;4.80;;;2.80;;
56517;SDS011;42419;48.760;2.322;2022-12-29T17:17:29;3.70;;;2.63;;
56517;SDS011;42419;48.760;2.322;2022-12-29T17:19:59;3.30;;;2.40;;
56517;SDS011;42419;48.760;2.322;2022-12-29T17:22:28;2.93;;;1.97;;
56517;SDS011;42419;48.760;2.322;2022-12-29T17:24:55;4.30;;;2.77;;
56517;SDS011;42419;48.760;2.322;2022-12-29T17:27:26;3.23;;;2.60;;